Time;durP1;ratioP1;P1;durP2;ratioP2;P2;SDS_P1;SDS_P2;PMS_P1;PMS_P2;Temp;Humidity;BMP_temperature;BMP_pressure;BME280_temperature;BME280_humidity;BME280_pressure;Samples;Min_cycle;Max_cycle;Signal;HPM_P1;HPM_P2
2022/12/01 00:00:00;;;;;;;;;;;;;;;9.57;44.13;100188.50;4475716;32;34436;-67
2022/12/01 00:02:30;;;;;;;;;;;;;;;8.33;47.03;100191.56;4468364;32;32293;-70
2022/12/01 00:04:58;;;;;;;;;;;;;;;8.30;46.98;100202.41;4473941;32;33849;-69
2022/12/01 00:07:25;;;;;;;;;;;;;;;8.23;47.22;100197.53;4480689;32;33300;-67
2022/12/01 00:12:42;;;;;;;;;;;;;;;9.30;44.11;100191.09;4467132;32;33062;-66
2022/12/01 00:15:10;;;;;;;;;;;;;;;8.28;45.87;100195.44;4471524;32;34104;-67
2022/12/01 00:17:37;;;;;;;;;;;;;;;8.53;45.80;100198.41;4474624;32;34240;-66
2022/12/01 00:20:05;;;;;;;;;;;;;;;9.17;44.78;100196.34;4468224;32;32954;-65
2022/12/01 00:22:32;;;;;;;;;;;;;;;8.34;46.49;100195.94;4477866;32;35003;-66
2022/12/01 00:24:59;;;;;;;;;;;;;;;8.57;44.95;100191.09;4477622;32;33004;-66
2022/12/01 00:27:27;;;;;;;;;;;;;;;8.08;45.90;100194.78;4467928;32;33804;-66
2022/12/01 00:29:54;;;;;;;;;;;;;;;8.51;45.48;100195.00;4473357;32;33133;-67
2022/12/01 00:32:21;;;;;;;;;;;;;;;8.09;46.12;100207.19;4468750;32;32251;-66
2022/12/01 00:34:49;;;;;;;;;;;;;;;7.38;47.74;100210.25;4471437;32;35199;-67
2022/12/01 00:37:16;;;;;;;;;;;;;;;8.03;46.40;100204.88;4484851;32;34534;-64
2022/12/01 00:39:44;;;;;;;;;;;;;;;7.92;46.39;100216.09;4471339;32;34356;-67
2022/12/01 00:42:11;;;;;;;;;;;;;;;8.19;45.94;100209.31;4462562;32;33697;-69
2022/12/01 00:44:39;;;;;;;;;;;;;;;7.74;47.56;100210.94;4451382;32;32375;-67
2022/12/01 00:47:07;;;;;;;;;;;;;;;7.06;49.44;100214.59;4481031;32;34443;-68
2022/12/01 00:49:34;;;;;;;;;;;;;;;7.80;47.79;100205.28;4473906;32;34885;-68
2022/12/01 00:52:01;;;;;;;;;;;;;;;8.23;46.90;100203.72;4481098;32;31419;-68
2022/12/01 00:54:31;;;;;;;;;;;;;;;6.86;49.71;100206.81;4468691;32;34940;-67
2022/12/01 00:56:58;;;;;;;;;;;;;;;8.05;47.20;100205.63;4479257;31;35371;-66
2022/12/01 00:59:26;;;;;;;;;;;;;;;7.95;47.26;100209.75;4474777;31;34388;-67
2022/12/01 01:01:53;;;;;;;;;;;;;;;7.48;47.98;100215.94;4465901;31;33390;-67
2022/12/01 01:04:21;;;;;;;;;;;;;;;7.77;49.12;100213.44;4467947;32;33772;-68
2022/12/01 01:06:48;;;;;;;;;;;;;;;7.91;46.93;100208.22;4463275;32;32928;-67
2022/12/01 01:09:15;;;;;;;;;;;;;;;7.57;47.67;100220.72;4470995;32;35297;-68
2022/12/01 01:11:43;;;;;;;;;;;;;;;7.61;48.00;100222.31;4474208;31;34681;-68
2022/12/01 01:14:10;;;;;;;;;;;;;;;7.56;47.82;100215.50;4479500;32;33379;-68
2022/12/01 01:16:37;;;;;;;;;;;;;;;7.59;48.97;100213.53;4476791;31;34856;-70
2022/12/01 01:19:05;;;;;;;;;;;;;;;7.39;48.43;100216.44;4475717;32;34521;-71
2022/12/01 01:21:32;;;;;;;;;;;;;;;8.34;46.27;100203.94;4478220;32;33952;-69
2022/12/01 01:23:59;;;;;;;;;;;;;;;7.83;47.38;100213.09;4467441;32;33937;-70
2022/12/01 01:26:28;;;;;;;;;;;;;;;8.42;45.69;100208.88;4478946;32;32932;-69
2022/12/01 01:28:56;;;;;;;;;;;;;;;8.26;46.11;100210.69;4468248;32;35342;-69
2022/12/01 01:31:24;;;;;;;;;;;;;;;8.23;45.92;100206.37;4466336;32;34351;-67
2022/12/01 01:33:51;;;;;;;;;;;;;;;8.20;46.44;100197.69;4471031;32;32596;-69
2022/12/01 01:36:18;;;;;;;;;;;;;;;8.63;45.41;100196.06;4468242;32;33395;-66
2022/12/01 01:38:46;;;;;;;;;;;;;;;8.07;46.45;100197.53;4472555;32;35569;-68
2022/12/01 01:41:13;;;;;;;;;;;;;;;8.92;44.93;100201.47;4475591;32;33586;-68
2022/12/01 01:43:41;;;;;;;;;;;;;;;8.29;46.00;100198.03;4468565;32;33826;-67
2022/12/01 01:46:12;;;;;;;;;;;;;;;8.86;44.70;100192.03;4474987;32;35477;-68
2022/12/01 01:48:40;;;;;;;;;;;;;;;8.72;45.00;100194.66;4466268;32;34018;-66
2022/12/01 01:51:08;;;;;;;;;;;;;;;8.24;46.05;100201.91;4458295;32;33534;-67
2022/12/01 01:53:35;;;;;;;;;;;;;;;8.88;44.50;100206.13;4464822;32;34290;-67
2022/12/01 01:56:02;;;;;;;;;;;;;;;8.65;45.15;100204.84;4465838;32;34215;-70
2022/12/01 01:58:30;;;;;;;;;;;;;;;9.23;43.74;100205.78;4436262;32;34900;-69
2022/12/01 02:00:57;;;;;;;;;;;;;;;8.90;44.49;100209.56;4462907;32;33310;-68
2022/12/01 02:03:25;;;;;;;;;;;;;;;8.72;44.90;100206.19;4466826;32;33415;-71
2022/12/01 02:05:52;;;;;;;;;;;;;;;9.02;44.22;100207.94;4471829;32;34155;-70
2022/12/01 02:08:19;;;;;;;;;;;;;;;9.13;43.95;100205.50;4471176;32;33109;-68
2022/12/01 02:11:06;;;;;;;;;;;;;;;9.01;44.45;100201.75;4464137;32;34726;-69
2022/12/01 02:13:50;;;;;;;;;;;;;;;9.29;43.69;100198.25;4466497;32;35294;-68
2022/12/01 02:16:41;;;;;;;;;;;;;;;8.19;45.88;100199.50;4468642;32;34169;-69
2022/12/01 02:19:27;;;;;;;;;;;;;;;9.06;44.10;100202.34;4464313;32;34279;-67
2022/12/01 02:22:10;;;;;;;;;;;;;;;9.28;43.63;100190.34;4464323;32;32404;-69
2022/12/01 02:24:50;;;;;;;;;;;;;;;9.46;43.11;100196.34;4463175;32;34061;-66
2022/12/01 02:27:23;;;;;;;;;;;;;;;9.48;43.02;100192.63;4471084;32;34351;-68
2022/12/01 02:29:58;;;;;;;;;;;;;;;9.49;42.87;100197.00;4470215;32;35132;-68
2022/12/01 02:32:32;;;;;;;;;;;;;;;9.30;43.23;100199.97;4459279;32;33637;-68
2022/12/01 02:35:03;;;;;;;;;;;;;;;9.47;43.14;100198.03;4472571;32;34003;-69
2022/12/01 02:37:51;;;;;;;;;;;;;;;9.47;42.87;100195.38;4467092;32;34372;-68
2022/12/01 02:40:25;;;;;;;;;;;;;;;9.36;43.08;100192.53;4459104;32;33276;-68
2022/12/01 02:43:01;;;;;;;;;;;;;;;9.12;43.43;100189.56;4453068;32;34722;-67
2022/12/01 02:45:45;;;;;;;;;;;;;;;9.16;43.23;100191.97;4477982;32;33091;-69
2022/12/01 02:48:26;;;;;;;;;;;;;;;7.75;46.56;100191.38;4467033;32;34338;-67
2022/12/01 02:50:54;;;;;;;;;;;;;;;7.71;46.80;100190.69;4454914;32;33720;-66
2022/12/01 02:53:21;;;;;;;;;;;;;;;7.72;46.25;100192.41;4452837;32;34063;-69
2022/12/01 02:55:52;;;;;;;;;;;;;;;7.34;47.04;100187.38;4464244;32;34600;-67
2022/12/01 02:58:20;;;;;;;;;;;;;;;7.73;46.71;100194.09;4467575;32;32834;-67
2022/12/01 03:01:06;;;;;;;;;;;;;;;7.89;46.10;100189.63;4467508;32;34308;-68
2022/12/01 03:03:39;;;;;;;;;;;;;;;6.79;48.33;100192.97;4467712;32;34282;-67
2022/12/01 03:06:11;;;;;;;;;;;;;;;7.03;48.53;100193.50;4481950;32;33951;-67
2022/12/01 03:08:58;;;;;;;;;;;;;;;7.54;46.75;100188.94;4455636;32;34167;-68
2022/12/01 03:11:50;;;;;;;;;;;;;;;7.06;47.95;100189.78;4469635;32;34460;-66
2022/12/01 03:14:17;;;;;;;;;;;;;;;7.45;47.20;100197.47;4466684;32;33973;-67
2022/12/01 03:16:52;;;;;;;;;;;;;;;8.36;44.98;100193.19;4467785;32;35125;-68
2022/12/01 03:19:22;;;;;;;;;;;;;;;8.48;44.40;100181.84;4463650;32;33164;-68
2022/12/01 03:22:10;;;;;;;;;;;;;;;8.39;44.51;100185.91;4467007;32;34208;-68
2022/12/01 03:24:37;;;;;;;;;;;;;;;8.00;45.43;100186.37;4478725;32;33151;-66
2022/12/01 03:27:05;;;;;;;;;;;;;;;7.83;45.93;100184.69;4460739;32;34019;-66
2022/12/01 03:29:38;;;;;;;;;;;;;;;6.59;48.72;100178.06;4462469;32;34006;-64
2022/12/01 03:32:18;;;;;;;;;;;;;;;7.60;46.94;100183.28;4454598;32;32765;-65
2022/12/01 03:34:49;;;;;;;;;;;;;;;7.00;48.07;100177.69;4459538;32;33622;-66
2022/12/01 03:37:19;;;;;;;;;;;;;;;7.22;47.74;100175.59;4449845;32;32899;-65
2022/12/01 03:39:47;;;;;;;;;;;;;;;7.66;46.69;100174.94;4471514;32;34259;-67
2022/12/01 03:42:18;;;;;;;;;;;;;;;7.95;45.85;100161.78;4467897;32;34409;-64
2022/12/01 03:44:50;;;;;;;;;;;;;;;8.20;45.49;100158.56;4460649;32;32051;-63
2022/12/01 03:47:18;;;;;;;;;;;;;;;8.14;45.34;100162.44;4476321;32;34283;-66
2022/12/01 03:49:46;;;;;;;;;;;;;;;8.14;46.12;100173.09;4476277;32;34879;-66
2022/12/01 03:52:14;;;;;;;;;;;;;;;8.05;45.69;100159.44;4465564;32;33091;-65
2022/12/01 03:54:46;;;;;;;;;;;;;;;7.88;46.06;100168.41;4468086;32;34031;-64
2022/12/01 03:57:14;;;;;;;;;;;;;;;7.88;46.19;100157.75;4476074;32;34050;-65
2022/12/01 03:59:41;;;;;;;;;;;;;;;7.71;46.84;100150.72;4450630;32;35399;-65
2022/12/01 04:02:08;;;;;;;;;;;;;;;7.34;47.82;100151.91;4452480;32;33246;-65
2022/12/01 04:04:36;;;;;;;;;;;;;;;7.28;47.51;100149.56;4466876;32;34653;-65
2022/12/01 04:07:03;;;;;;;;;;;;;;;7.34;47.42;100143.91;4476302;32;34761;-70
2022/12/01 04:09:31;;;;;;;;;;;;;;;6.97;49.83;100143.25;4475237;32;34542;-68
2022/12/01 04:14:44;;;;;;;;;;;;;;;6.63;50.02;100137.03;4472559;32;34433;-68
2022/12/01 04:17:12;;;;;;;;;;;;;;;6.45;50.39;100132.66;4469280;32;34166;-68
2022/12/01 04:19:39;;;;;;;;;;;;;;;6.44;49.96;100134.47;4471934;32;34119;-68
2022/12/01 04:22:06;;;;;;;;;;;;;;;6.43;50.62;100129.25;4467056;32;34272;-68
2022/12/01 04:24:33;;;;;;;;;;;;;;;6.49;50.29;100131.59;4465797;32;34384;-67
2022/12/01 04:27:01;;;;;;;;;;;;;;;5.96;51.27;100143.97;4479248;32;34019;-71
2022/12/01 04:29:28;;;;;;;;;;;;;;;4.72;54.31;100165.69;4464825;32;34483;-72
2022/12/01 04:31:55;;;;;;;;;;;;;;;5.89;51.53;100179.72;4467788;32;34552;-68
2022/12/01 04:34:23;;;;;;;;;;;;;;;5.01;53.58;100182.06;4472497;32;33295;-68
2022/12/01 04:36:50;;;;;;;;;;;;;;;5.53;52.57;100179.72;4467608;32;35214;-69
2022/12/01 04:39:17;;;;;;;;;;;;;;;6.00;51.59;100179.22;4475063;32;35508;-68
2022/12/01 04:41:45;;;;;;;;;;;;;;;6.71;50.29;100179.22;4474505;32;36806;-70
2022/12/01 04:44:12;;;;;;;;;;;;;;;6.25;50.20;100170.91;4471083;32;33594;-68
2022/12/01 04:46:40;;;;;;;;;;;;;;;6.89;49.59;100164.94;4481048;32;33799;-71
2022/12/01 04:49:07;;;;;;;;;;;;;;;6.57;51.90;100171.94;4475559;32;35249;-68
2022/12/01 04:51:35;;;;;;;;;;;;;;;6.33;50.66;100171.41;4473525;32;34521;-68
2022/12/01 04:54:02;;;;;;;;;;;;;;;6.46;50.24;100179.63;4475755;32;33479;-68
2022/12/01 04:56:29;;;;;;;;;;;;;;;5.48;52.61;100187.00;4464561;32;34103;-70
2022/12/01 04:58:58;;;;;;;;;;;;;;;5.99;50.87;100193.47;4455397;32;35347;-70
2022/12/01 05:01:25;;;;;;;;;;;;;;;5.88;51.32;100198.41;4465548;32;35060;-68
2022/12/01 05:03:53;;;;;;;;;;;;;;;6.24;50.43;100195.78;4465879;32;34639;-69
2022/12/01 05:06:21;;;;;;;;;;;;;;;7.03;47.85;100203.25;4470560;32;32367;-70
2022/12/01 05:08:49;;;;;;;;;;;;;;;6.82;48.47;100198.12;4466413;32;34854;-69
2022/12/01 05:11:16;;;;;;;;;;;;;;;6.22;49.52;100198.50;4471645;32;34600;-68
2022/12/01 05:13:44;;;;;;;;;;;;;;;6.56;49.54;100195.97;4472244;32;34563;-71
2022/12/01 05:16:12;;;;;;;;;;;;;;;7.51;46.86;100189.09;4475271;32;34414;-68
2022/12/01 05:18:39;;;;;;;;;;;;;;;6.82;48.49;100179.50;4469668;32;34450;-69
2022/12/01 05:21:08;;;;;;;;;;;;;;;6.94;48.79;100188.66;4469494;32;35138;-68
2022/12/01 05:23:36;;;;;;;;;;;;;;;6.34;50.00;100182.87;4472364;32;34384;-69
2022/12/01 05:26:03;;;;;;;;;;;;;;;7.23;47.81;100190.63;4469155;32;34115;-71
2022/12/01 05:28:31;;;;;;;;;;;;;;;7.55;47.70;100185.34;4464933;32;32937;-69
2022/12/01 05:30:58;;;;;;;;;;;;;;;6.41;49.40;100179.84;4470227;32;34172;-71
2022/12/01 05:33:26;;;;;;;;;;;;;;;7.82;46.24;100180.28;4471027;32;34706;-69
2022/12/01 05:35:53;;;;;;;;;;;;;;;7.32;47.29;100183.06;4476562;32;32785;-67
2022/12/01 05:38:20;;;;;;;;;;;;;;;7.77;46.30;100186.78;4480452;32;34261;-69
2022/12/01 05:40:48;;;;;;;;;;;;;;;8.02;45.15;100186.28;4471465;32;34632;-68
2022/12/01 05:43:16;;;;;;;;;;;;;;;8.48;44.45;100181.84;4465394;32;33307;-68
2022/12/01 05:45:44;;;;;;;;;;;;;;;8.61;43.93;100192.66;4466383;32;34089;-69
2022/12/01 05:48:11;;;;;;;;;;;;;;;8.58;44.57;100183.00;4465307;32;35442;-69
2022/12/01 05:50:38;;;;;;;;;;;;;;;8.68;44.21;100193.13;4470253;32;33516;-70
2022/12/01 05:53:06;;;;;;;;;;;;;;;8.56;45.16;100195.56;4471784;32;33634;-67
2022/12/01 05:55:33;;;;;;;;;;;;;;;8.77;43.92;100198.78;4472870;32;33833;-69
2022/12/01 05:58:01;;;;;;;;;;;;;;;8.82;43.72;100194.00;4460911;32;33950;-68
2022/12/01 06:00:28;;;;;;;;;;;;;;;8.59;45.16;100198.06;4466726;32;34418;-68
2022/12/01 06:02:56;;;;;;;;;;;;;;;8.71;44.84;100203.63;4468086;32;34467;-69
2022/12/01 06:05:23;;;;;;;;;;;;;;;8.75;44.08;100206.00;4475998;32;34866;-70
2022/12/01 06:07:50;;;;;;;;;;;;;;;8.74;44.40;100206.97;4471558;32;34328;-69
2022/12/01 06:10:18;;;;;;;;;;;;;;;8.77;44.31;100205.94;4469852;32;33253;-69
2022/12/01 06:12:45;;;;;;;;;;;;;;;8.72;43.50;100214.19;4470463;32;33368;-71
2022/12/01 06:15:12;;;;;;;;;;;;;;;8.66;43.58;100224.38;4475041;32;33963;-68
2022/12/01 06:17:40;;;;;;;;;;;;;;;8.16;45.60;100216.53;4475143;32;35381;-67
2022/12/01 06:20:08;;;;;;;;;;;;;;;8.57;44.13;100213.31;4472875;32;34113;-69
2022/12/01 06:22:35;;;;;;;;;;;;;;;8.56;44.52;100222.25;4476578;32;34119;-72
2022/12/01 06:25:03;;;;;;;;;;;;;;;8.51;44.46;100229.69;4471291;32;32992;-71
2022/12/01 06:27:30;;;;;;;;;;;;;;;8.59;44.16;100221.22;4468947;32;35351;-71
2022/12/01 06:29:57;;;;;;;;;;;;;;;8.47;44.98;100225.44;4468482;32;34320;-70
2022/12/01 06:32:24;;;;;;;;;;;;;;;8.47;45.26;100228.13;4470295;32;33650;-71
2022/12/01 06:34:52;;;;;;;;;;;;;;;8.73;43.89;100221.28;4468854;32;34047;-72
2022/12/01 06:37:19;;;;;;;;;;;;;;;8.65;44.32;100217.34;4476627;32;34425;-72
2022/12/01 06:39:46;;;;;;;;;;;;;;;8.78;44.25;100218.31;4476384;32;34500;-70
2022/12/01 06:42:14;;;;;;;;;;;;;;;8.76;44.60;100209.53;4481805;32;33575;-69
2022/12/01 06:44:41;;;;;;;;;;;;;;;8.84;44.70;100212.63;4483430;32;34895;-70
2022/12/01 06:47:09;;;;;;;;;;;;;;;9.13;43.65;100210.84;4473873;32;34343;-70
2022/12/01 06:49:37;;;;;;;;;;;;;;;9.45;42.76;100213.34;4468167;32;35065;-73
2022/12/01 06:52:04;;;;;;;;;;;;;;;9.70;41.35;100210.81;4473317;32;34525;-74
2022/12/01 06:54:32;;;;;;;;;;;;;;;9.92;41.30;100218.34;4477050;32;34080;-72
2022/12/01 06:56:59;;;;;;;;;;;;;;;9.99;41.00;100216.13;4471999;32;34043;-71
2022/12/01 06:59:27;;;;;;;;;;;;;;;9.89;42.30;100213.19;4466641;32;33018;-74
2022/12/01 07:01:56;;;;;;;;;;;;;;;10.04;40.63;100220.19;4476477;32;33369;-72
2022/12/01 07:04:24;;;;;;;;;;;;;;;9.99;42.20;100224.16;4474273;32;34284;-74
2022/12/01 07:06:51;;;;;;;;;;;;;;;10.29;41.47;100229.31;4471871;32;33006;-72
2022/12/01 07:09:18;;;;;;;;;;;;;;;10.30;41.09;100220.34;4476522;32;33242;-73
2022/12/01 07:11:46;;;;;;;;;;;;;;;10.57;40.10;100219.47;4468258;32;31957;-73
2022/12/01 07:14:19;;;;;;;;;;;;;;;10.96;39.31;100223.94;4469456;32;33245;-71
2022/12/01 07:16:46;;;;;;;;;;;;;;;10.98;39.72;100223.81;4463075;32;34950;-71
2022/12/01 07:19:13;;;;;;;;;;;;;;;10.82;39.51;100224.00;4483105;32;35337;-71
2022/12/01 07:21:41;;;;;;;;;;;;;;;10.81;40.13;100220.47;4476978;32;33370;-72
2022/12/01 07:24:08;;;;;;;;;;;;;;;10.76;39.99;100222.63;4470339;32;34242;-71
2022/12/01 07:26:36;;;;;;;;;;;;;;;11.19;37.65;100225.88;4473258;32;34155;-72
2022/12/01 07:29:03;;;;;;;;;;;;;;;11.70;37.29;100229.50;4481722;32;35317;-72
2022/12/01 07:31:30;;;;;;;;;;;;;;;12.30;35.74;100224.19;4476976;32;33243;-72
2022/12/01 07:33:58;;;;;;;;;;;;;;;12.26;35.82;100225.41;4462206;32;32931;-73
2022/12/01 07:36:25;;;;;;;;;;;;;;;11.84;37.12;100221.28;4471972;32;33180;-73
2022/12/01 07:38:52;;;;;;;;;;;;;;;11.62;38.01;100217.50;4475156;32;33659;-72
2022/12/01 07:41:20;;;;;;;;;;;;;;;12.10;37.27;100222.09;4478066;32;33347;-72
2022/12/01 07:43:48;;;;;;;;;;;;;;;12.23;35.92;100222.06;4473917;32;35682;-72
2022/12/01 07:46:17;;;;;;;;;;;;;;;12.09;35.89;100231.13;4474210;32;33438;-71
2022/12/01 07:48:49;;;;;;;;;;;;;;;12.03;36.08;100226.22;4470214;32;34134;-72
2022/12/01 07:51:17;;;;;;;;;;;;;;;11.96;36.95;100228.47;4476939;32;33655;-72
2022/12/01 07:53:44;;;;;;;;;;;;;;;11.92;37.55;100227.00;4472260;32;32712;-72
2022/12/01 07:56:12;;;;;;;;;;;;;;;12.37;36.38;100221.06;4473654;32;33234;-72
2022/12/01 07:58:40;;;;;;;;;;;;;;;12.35;38.14;100237.25;4484618;32;32848;-73
2022/12/01 08:01:11;;;;;;;;;;;;;;;12.82;37.35;100235.50;4469573;32;34096;-72
2022/12/01 08:03:39;;;;;;;;;;;;;;;13.05;36.08;100237.28;4468626;32;34132;-72
2022/12/01 08:06:07;;;;;;;;;;;;;;;13.19;34.64;100232.66;4456779;32;34070;-72
2022/12/01 08:08:35;;;;;;;;;;;;;;;13.12;35.00;100231.44;4473914;32;33076;-73
2022/12/01 08:11:06;;;;;;;;;;;;;;;13.52;34.47;100230.06;4469145;32;33244;-71
2022/12/01 08:13:34;;;;;;;;;;;;;;;13.84;34.41;100229.31;4470580;32;33194;-71
2022/12/01 08:16:02;;;;;;;;;;;;;;;14.47;33.14;100234.06;4474233;32;35616;-71
2022/12/01 08:18:29;;;;;;;;;;;;;;;14.79;31.97;100231.38;4472538;32;35353;-72
2022/12/01 08:20:57;;;;;;;;;;;;;;;15.03;32.18;100225.75;4472754;32;33071;-70
2022/12/01 08:23:24;;;;;;;;;;;;;;;15.41;31.35;100227.84;4469731;32;32769;-72
2022/12/01 08:25:51;;;;;;;;;;;;;;;15.47;31.02;100226.44;4469118;32;32938;-71
2022/12/01 08:28:19;;;;;;;;;;;;;;;14.92;32.98;100223.97;4473629;32;34463;-72
2022/12/01 08:30:46;;;;;;;;;;;;;;;15.88;31.21;100222.81;4467360;32;33541;-73
2022/12/01 08:33:14;;;;;;;;;;;;;;;17.07;29.20;100218.22;4475552;32;34054;-70
2022/12/01 08:35:41;;;;;;;;;;;;;;;17.42;28.89;100221.13;4467696;32;34264;-70
2022/12/01 08:38:09;;;;;;;;;;;;;;;17.00;28.73;100218.81;4474718;32;34182;-70
2022/12/01 08:40:36;;;;;;;;;;;;;;;16.48;30.25;100222.78;4475724;31;34239;-71
2022/12/01 08:43:04;;;;;;;;;;;;;;;16.00;30.10;100227.09;4483752;32;32810;-72
2022/12/01 08:45:31;;;;;;;;;;;;;;;16.13;30.40;100228.72;4467253;32;33933;-71
2022/12/01 08:47:58;;;;;;;;;;;;;;;16.15;30.45;100229.44;4471393;32;34970;-70
2022/12/01 08:50:26;;;;;;;;;;;;;;;15.66;31.47;100233.75;4466382;32;34092;-72
2022/12/01 08:52:53;;;;;;;;;;;;;;;15.42;32.09;100236.78;4473728;32;32417;-71
2022/12/01 08:55:21;;;;;;;;;;;;;;;15.62;32.38;100235.88;4467821;32;35386;-70
2022/12/01 08:57:48;;;;;;;;;;;;;;;16.17;31.48;100235.53;4472650;32;34258;-70
2022/12/01 09:00:15;;;;;;;;;;;;;;;17.29;29.03;100238.69;4479985;32;34325;-70
2022/12/01 09:02:43;;;;;;;;;;;;;;;17.83;28.07;100240.69;4475348;32;33937;-71
2022/12/01 09:05:10;;;;;;;;;;;;;;;17.94;28.69;100236.91;4475934;32;34012;-70
2022/12/01 09:07:37;;;;;;;;;;;;;;;18.20;27.73;100238.91;4471167;32;33110;-70
2022/12/01 09:10:05;;;;;;;;;;;;;;;18.12;28.10;100231.56;4467398;32;34155;-71
2022/12/01 09:12:33;;;;;;;;;;;;;;;17.46;28.46;100237.94;4474970;32;35202;-73
2022/12/01 09:15:00;;;;;;;;;;;;;;;16.96;28.70;100232.78;4474023;32;33916;-70
2022/12/01 09:17:28;;;;;;;;;;;;;;;18.16;27.07;100231.09;4474788;32;34515;-71
2022/12/01 09:19:55;;;;;;;;;;;;;;;19.07;25.98;100233.72;4463611;32;33663;-71
2022/12/01 09:22:22;;;;;;;;;;;;;;;18.86;25.55;100225.06;4469716;32;34343;-71
2022/12/01 09:24:50;;;;;;;;;;;;;;;18.41;26.97;100223.25;4467388;32;32664;-71
2022/12/01 09:27:17;;;;;;;;;;;;;;;18.15;27.57;100225.84;4473313;32;34551;-70
2022/12/01 09:29:44;;;;;;;;;;;;;;;17.67;27.56;100222.34;4471890;32;33736;-70
2022/12/01 09:32:12;;;;;;;;;;;;;;;16.73;28.48;100215.97;4469832;32;34045;-69
2022/12/01 09:34:39;;;;;;;;;;;;;;;15.49;31.07;100222.63;4469532;32;35341;-70
2022/12/01 09:37:06;;;;;;;;;;;;;;;16.02;29.99;100222.44;4474038;32;34419;-70
2022/12/01 09:39:34;;;;;;;;;;;;;;;15.64;30.28;100219.56;4461178;32;33257;-72
2022/12/01 09:42:06;;;;;;;;;;;;;;;16.14;30.24;100211.50;4477590;32;33976;-69
2022/12/01 09:44:40;;;;;;;;;;;;;;;16.08;30.01;100221.00;4469633;32;33504;-74
2022/12/01 09:47:11;;;;;;;;;;;;;;;16.27;29.61;100220.19;4469712;32;34119;-70
2022/12/01 09:49:42;;;;;;;;;;;;;;;15.89;29.90;100213.72;4469130;32;34541;-69
2022/12/01 09:52:14;;;;;;;;;;;;;;;17.69;28.04;100203.25;4469084;32;33054;-69
2022/12/01 09:54:42;;;;;;;;;;;;;;;18.16;26.32;100197.72;4471904;32;33431;-69
2022/12/01 09:57:21;;;;;;;;;;;;;;;18.63;26.11;100197.53;4469684;32;36164;-69
2022/12/01 09:59:49;;;;;;;;;;;;;;;18.30;26.20;100194.53;4478870;32;33935;-69
2022/12/01 10:02:37;;;;;;;;;;;;;;;15.33;30.34;100201.53;4471813;32;32439;-71
2022/12/01 10:05:06;;;;;;;;;;;;;;;14.83;31.53;100197.78;4474064;32;32721;-70
2022/12/01 10:07:37;;;;;;;;;;;;;;;14.87;31.10;100197.44;4470131;32;34167;-70
2022/12/01 10:10:15;;;;;;;;;;;;;;;14.62;31.67;100201.34;4474426;32;34550;-69
2022/12/01 10:12:44;;;;;;;;;;;;;;;14.71;31.94;100194.31;4469533;32;35267;-71
2022/12/01 10:15:11;;;;;;;;;;;;;;;14.85;31.66;100196.69;4457410;32;34019;-72
2022/12/01 10:17:45;;;;;;;;;;;;;;;14.63;31.79;100194.97;4476189;32;34677;-71
2022/12/01 10:20:26;;;;;;;;;;;;;;;13.78;33.67;100192.16;4468979;32;34059;-70
2022/12/01 10:23:03;;;;;;;;;;;;;;;14.56;32.05;100187.53;4467319;32;34248;-68
2022/12/01 10:25:39;;;;;;;;;;;;;;;15.42;31.35;100191.78;4462602;32;34391;-69
2022/12/01 10:28:19;;;;;;;;;;;;;;;16.99;28.61;100186.53;4463888;32;33186;-69
2022/12/01 10:30:48;;;;;;;;;;;;;;;17.48;28.17;100186.37;4465388;32;34281;-72
2022/12/01 10:33:25;;;;;;;;;;;;;;;18.41;26.99;100171.75;4468761;32;34994;-70
2022/12/01 10:35:52;;;;;;;;;;;;;;;18.28;27.19;100172.13;4472778;32;34132;-70
2022/12/01 10:38:24;;;;;;;;;;;;;;;18.31;26.89;100162.84;4469110;32;33171;-70
2022/12/01 10:40:52;;;;;;;;;;;;;;;17.25;28.07;100169.66;4464890;32;34772;-71
2022/12/01 10:43:22;;;;;;;;;;;;;;;17.79;27.25;100155.34;4470603;32;33883;-70
2022/12/01 10:45:50;;;;;;;;;;;;;;;16.56;28.94;100165.31;4461185;32;35234;-70
2022/12/01 10:48:20;;;;;;;;;;;;;;;16.83;28.38;100168.19;4478175;32;34570;-71
2022/12/01 10:50:49;;;;;;;;;;;;;;;16.77;28.86;100168.75;4475977;32;33563;-70
2022/12/01 10:53:22;;;;;;;;;;;;;;;16.57;28.67;100170.59;4467794;32;34294;-71
2022/12/01 10:55:56;;;;;;;;;;;;;;;16.95;28.25;100172.44;4474942;32;34315;-70
2022/12/01 10:58:23;;;;;;;;;;;;;;;17.45;28.28;100171.28;4461103;32;33923;-72
2022/12/01 11:00:56;;;;;;;;;;;;;;;16.76;29.18;100170.62;4469647;32;33352;-69
2022/12/01 11:03:27;;;;;;;;;;;;;;;15.69;30.79;100161.50;4463742;32;34065;-69
2022/12/01 11:05:56;;;;;;;;;;;;;;;15.42;31.09;100167.50;4457789;32;33904;-72
2022/12/01 11:08:28;;;;;;;;;;;;;;;15.31;31.17;100167.56;4467309;32;34782;-69
2022/12/01 11:10:55;;;;;;;;;;;;;;;15.06;31.76;100160.81;4464801;32;32287;-70
2022/12/01 11:13:23;;;;;;;;;;;;;;;14.97;32.13;100158.91;4470058;32;34017;-68
2022/12/01 11:15:55;;;;;;;;;;;;;;;14.83;32.28;100150.16;4471182;32;34051;-72
2022/12/01 11:18:41;;;;;;;;;;;;;;;14.52;33.11;100143.00;4467551;32;34307;-72
2022/12/01 11:21:09;;;;;;;;;;;;;;;14.08;33.21;100134.94;4467176;32;34592;-72
2022/12/01 11:23:37;;;;;;;;;;;;;;;13.33;34.69;100137.53;4463116;32;35074;-72
2022/12/01 11:26:09;;;;;;;;;;;;;;;13.37;34.92;100129.09;4471327;32;33976;-72
2022/12/01 11:28:39;;;;;;;;;;;;;;;12.59;36.21;100136.06;4467880;32;35297;-72
2022/12/01 11:31:07;;;;;;;;;;;;;;;13.01;35.39;100136.38;4468724;32;33634;-72
2022/12/01 11:33:53;;;;;;;;;;;;;;;12.29;37.00;100130.34;4467837;32;35171;-72
2022/12/01 11:36:28;;;;;;;;;;;;;;;12.25;37.06;100135.09;4478052;32;35059;-72
2022/12/01 11:38:56;;;;;;;;;;;;;;;12.25;37.26;100134.25;4456035;32;34559;-74
2022/12/01 11:41:31;;;;;;;;;;;;;;;12.08;37.55;100135.50;4475258;32;32105;-75
2022/12/01 11:43:59;;;;;;;;;;;;;;;11.33;39.32;100136.50;4471971;32;34264;-72
2022/12/01 11:46:33;;;;;;;;;;;;;;;11.89;38.15;100127.97;4473184;32;34471;-73
2022/12/01 11:49:00;;;;;;;;;;;;;;;11.66;38.55;100132.31;4467397;32;33133;-73
2022/12/01 11:51:30;;;;;;;;;;;;;;;11.44;39.21;100138.38;4461554;32;33652;-73
2022/12/01 11:54:15;;;;;;;;;;;;;;;11.16;39.24;100137.66;4474660;32;32948;-73
2022/12/01 11:56:43;;;;;;;;;;;;;;;11.67;39.15;100131.34;4461846;32;33209;-73
2022/12/01 11:59:11;;;;;;;;;;;;;;;10.62;40.82;100134.34;4476356;32;36794;-73
2022/12/01 12:01:56;;;;;;;;;;;;;;;11.18;39.94;100126.84;4472747;32;32987;-73
2022/12/01 12:04:43;;;;;;;;;;;;;;;10.69;40.17;100125.81;4470282;32;32758;-72
2022/12/01 12:07:29;;;;;;;;;;;;;;;11.69;38.90;100125.91;4470779;32;34951;-72
2022/12/01 12:09:56;;;;;;;;;;;;;;;10.98;40.22;100135.44;4473569;32;34409;-76
2022/12/01 12:12:24;;;;;;;;;;;;;;;10.83;41.71;100127.50;4473520;32;34731;-67
2022/12/01 12:14:57;;;;;;;;;;;;;;;11.53;39.48;100131.50;4468766;32;34504;-68
2022/12/01 12:17:25;;;;;;;;;;;;;;;10.87;41.15;100120.97;4470381;31;33098;-67
2022/12/01 12:20:01;;;;;;;;;;;;;;;10.50;42.16;100122.69;4472701;32;35001;-68
2022/12/01 12:22:35;;;;;;;;;;;;;;;10.82;41.17;100122.25;4476341;32;33219;-69
2022/12/01 12:25:02;;;;;;;;;;;;;;;11.29;40.37;100126.09;4472985;32;34345;-67
2022/12/01 12:27:30;;;;;;;;;;;;;;;11.92;38.86;100122.37;4472818;32;34140;-68
2022/12/01 12:30:02;;;;;;;;;;;;;;;11.62;39.43;100126.34;4477706;32;34357;-67
2022/12/01 12:32:42;;;;;;;;;;;;;;;10.86;41.20;100124.63;4468986;32;31807;-66
2022/12/01 12:35:17;;;;;;;;;;;;;;;11.15;40.26;100119.88;4468769;32;33587;-66
2022/12/01 12:37:51;;;;;;;;;;;;;;;11.35;39.72;100118.44;4452165;32;33440;-68
2022/12/01 12:40:18;;;;;;;;;;;;;;;11.42;39.70;100125.06;4465910;32;33761;-67
2022/12/01 12:42:52;;;;;;;;;;;;;;;11.44;40.03;100122.31;4463887;32;33879;-68
2022/12/01 12:45:39;;;;;;;;;;;;;;;11.65;39.50;100120.75;4468777;32;34432;-68
2022/12/01 12:48:25;;;;;;;;;;;;;;;11.99;38.95;100112.91;4471048;32;35474;-69
2022/12/01 12:50:58;;;;;;;;;;;;;;;12.07;38.91;100109.62;4468407;32;34415;-68
2022/12/01 12:53:27;;;;;;;;;;;;;;;12.16;39.01;100114.31;4474397;32;32077;-68
2022/12/01 12:55:58;;;;;;;;;;;;;;;11.18;40.52;100116.16;4467781;32;33913;-69
2022/12/01 12:58:31;;;;;;;;;;;;;;;11.59;40.08;100115.84;4473684;32;32912;-69
2022/12/01 13:01:19;;;;;;;;;;;;;;;10.40;41.11;100110.88;4466829;32;34961;-70